createdAt,value
2022-10-15T00:01:46.256Z,9.50
2022-10-15T00:04:13.940Z,11.50
2022-10-15T00:06:41.975Z,13.50
2022-10-15T00:09:09.596Z,7.50
2022-10-15T00:11:37.326Z,9.75
2022-10-15T00:14:04.967Z,13.00
2022-10-15T00:16:32.566Z,5.25
2022-10-15T00:19:00.218Z,9.50
2022-10-15T00:21:28.031Z,10.00
2022-10-15T00:23:55.981Z,9.75
2022-10-15T00:26:23.747Z,11.00
2022-10-15T00:28:51.985Z,9.75
2022-10-15T00:31:20.291Z,7.50
2022-10-15T00:33:48.132Z,10.00
2022-10-15T00:36:16.114Z,12.00
2022-10-15T00:38:43.678Z,13.75
2022-10-15T00:41:11.338Z,7.00
2022-10-15T00:43:38.952Z,12.25
2022-10-15T00:46:06.802Z,5.00
2022-10-15T00:48:34.631Z,12.00
2022-10-15T00:51:02.815Z,11.00
2022-10-15T00:53:30.520Z,13.50
2022-10-15T00:55:58.211Z,19.00
2022-10-15T00:58:28.457Z,12.25
2022-10-15T01:00:56.506Z,12.50
2022-10-15T01:03:24.157Z,13.00
2022-10-15T01:05:51.742Z,12.50
2022-10-15T01:08:19.317Z,14.50
2022-10-15T01:10:47.375Z,10.00
2022-10-15T01:13:15.802Z,7.25
2022-10-15T01:15:43.367Z,9.25
2022-10-15T01:18:10.949Z,9.00
2022-10-15T01:20:38.516Z,8.00
2022-10-15T01:23:06.296Z,6.50
2022-10-15T01:25:34.234Z,4.50
2022-10-15T01:28:01.818Z,6.00
2022-10-15T01:30:29.399Z,13.00
2022-10-15T01:32:57.084Z,7.75
2022-10-15T01:35:26.217Z,10.25
2022-10-15T01:37:54.133Z,12.00
2022-10-15T01:40:21.816Z,9.00
2022-10-15T01:42:49.506Z,15.25
2022-10-15T01:45:17.047Z,14.00
2022-10-15T01:47:44.655Z,18.75
2022-10-15T01:50:12.608Z,15.00
2022-10-15T01:52:40.230Z,9.75
2022-10-15T01:55:07.869Z,14.25
2022-10-15T01:57:35.788Z,15.00
2022-10-15T02:00:04.447Z,15.75
2022-10-15T02:02:32.393Z,15.50
2022-10-15T02:04:59.965Z,13.00
2022-10-15T02:07:27.504Z,10.50
2022-10-15T02:09:55.087Z,13.25
2022-10-15T02:12:23.055Z,12.25
2022-10-15T02:14:51.129Z,11.25
2022-10-15T02:17:18.755Z,6.00
2022-10-15T02:19:46.465Z,14.75
2022-10-15T02:22:14.096Z,12.00
2022-10-15T02:24:41.935Z,13.50
2022-10-15T02:27:09.876Z,13.50
2022-10-15T02:29:37.992Z,18.50
2022-10-15T02:32:05.609Z,9.75
2022-10-15T02:34:33.155Z,18.25
2022-10-15T02:37:00.729Z,23.25
2022-10-15T02:39:28.686Z,19.25
2022-10-15T02:41:56.242Z,17.00
2022-10-15T02:44:23.784Z,20.75
2022-10-15T02:46:51.391Z,15.00
2022-10-15T02:49:18.952Z,18.50
2022-10-15T02:51:46.968Z,15.25
2022-10-15T02:54:14.709Z,18.75
2022-10-15T02:56:42.281Z,15.25
2022-10-15T02:59:09.857Z,18.50
2022-10-15T03:01:39.416Z,21.25
2022-10-15T03:04:07.361Z,14.00
2022-10-15T03:06:34.928Z,14.50
2022-10-15T03:09:02.556Z,17.50
2022-10-15T03:11:30.099Z,18.25
2022-10-15T03:13:57.842Z,23.00
2022-10-15T03:16:26.909Z,18.00
2022-10-15T03:18:54.454Z,18.50
2022-10-15T03:21:22.019Z,16.00
2022-10-15T03:23:50.070Z,23.50
2022-10-15T03:26:17.806Z,23.00
2022-10-15T03:28:45.830Z,21.00
2022-10-15T03:31:14.373Z,18.75
2022-10-15T03:33:41.917Z,16.50
2022-10-15T03:36:09.492Z,23.50
2022-10-15T03:38:37.305Z,16.25
2022-10-15T03:41:05.255Z,16.00
2022-10-15T03:43:32.803Z,19.75
2022-10-15T03:46:00.426Z,18.25
2022-10-15T03:48:27.957Z,12.50
2022-10-15T03:50:55.736Z,21.25
2022-10-15T03:53:23.520Z,18.00
2022-10-15T03:55:51.067Z,15.25
2022-10-15T03:58:18.621Z,17.00
2022-10-15T04:00:46.228Z,19.50
2022-10-15T04:03:13.991Z,15.75
2022-10-15T04:05:42.367Z,14.00
2022-10-15T04:08:09.964Z,16.50
2022-10-15T04:10:37.514Z,17.00
2022-10-15T04:13:05.065Z,19.00
2022-10-15T04:15:32.869Z,16.00
2022-10-15T04:18:00.464Z,9.25
2022-10-15T04:20:28.002Z,12.50
2022-10-15T04:22:55.592Z,10.25
2022-10-15T04:25:23.153Z,14.00
2022-10-15T04:27:53.464Z,16.00
2022-10-15T04:30:21.109Z,16.00
2022-10-15T04:32:48.634Z,20.50
2022-10-15T04:35:16.188Z,11.00
2022-10-15T04:37:43.782Z,24.00
2022-10-15T04:40:11.347Z,11.50
2022-10-15T04:42:39.548Z,16.00
2022-10-15T04:45:07.154Z,14.00
2022-10-15T04:47:34.716Z,14.75
2022-10-15T04:50:02.262Z,16.00
2022-10-15T04:52:29.879Z,14.50
2022-10-15T04:54:59.082Z,13.25
2022-10-15T04:57:27.121Z,17.75
2022-10-15T04:59:57.652Z,17.50
2022-10-15T05:02:25.582Z,8.50
2022-10-15T05:04:53.217Z,13.00
2022-10-15T05:07:21.420Z,19.75
2022-10-15T05:09:49.193Z,12.00
2022-10-15T05:12:20.269Z,15.50
2022-10-15T05:14:47.862Z,17.00
2022-10-15T05:17:15.603Z,14.00
2022-10-15T05:19:43.548Z,15.50
2022-10-15T05:22:11.163Z,16.25
2022-10-15T05:24:38.753Z,17.50
2022-10-15T05:27:06.325Z,16.75
2022-10-15T05:29:34.130Z,8.25
2022-10-15T05:32:02.112Z,18.00
2022-10-15T05:34:30.771Z,9.00
2022-10-15T05:36:58.442Z,12.25
2022-10-15T05:39:25.993Z,17.00
2022-10-15T05:41:53.785Z,12.00
2022-10-15T05:44:21.712Z,15.50
2022-10-15T05:46:49.262Z,15.75
2022-10-15T05:49:16.855Z,11.00
2022-10-15T05:51:44.464Z,9.00
2022-10-15T05:54:12.301Z,20.25
2022-10-15T05:56:40.744Z,15.50
2022-10-15T05:59:08.339Z,12.75
2022-10-15T06:01:37.903Z,14.25
2022-10-15T06:04:05.552Z,11.50
2022-10-15T06:06:33.312Z,8.50
2022-10-15T06:09:02.107Z,18.00
2022-10-15T06:11:29.769Z,18.50
2022-10-15T06:13:57.401Z,15.25
2022-10-15T06:16:25.044Z,19.50
2022-10-15T06:18:52.853Z,15.50
2022-10-15T06:21:20.536Z,15.75
2022-10-15T06:23:48.120Z,7.50
2022-10-15T06:26:15.717Z,19.00
2022-10-15T06:28:43.404Z,25.00
2022-10-15T06:31:11.312Z,24.25
2022-10-15T06:33:39.345Z,18.00
2022-10-15T06:36:06.969Z,12.00
2022-10-15T06:38:34.550Z,19.75
2022-10-15T06:41:02.565Z,16.75
2022-10-15T06:43:32.644Z,20.00
2022-10-15T06:46:02.936Z,16.00
2022-10-15T06:48:30.585Z,12.75
2022-10-15T06:50:58.144Z,12.50
2022-10-15T06:53:25.760Z,12.25
2022-10-15T06:55:53.383Z,16.75
2022-10-15T06:58:21.161Z,15.00
2022-10-15T07:00:48.757Z,36.00
2022-10-15T07:03:16.913Z,28.00
2022-10-15T07:05:44.579Z,20.50
2022-10-15T07:08:16.845Z,15.25
2022-10-15T07:10:47.357Z,18.00
2022-10-15T07:13:16.265Z,24.50
2022-10-15T07:15:44.816Z,27.00
2022-10-15T07:18:12.719Z,17.00
2022-10-15T07:20:40.348Z,24.75
2022-10-15T07:23:08.369Z,22.50
2022-10-15T07:25:36.285Z,16.00
2022-10-15T07:28:04.006Z,18.50
2022-10-15T07:30:31.815Z,25.75
2022-10-15T07:32:59.480Z,14.50
2022-10-15T07:35:27.503Z,18.75
2022-10-15T07:37:55.169Z,17.00
2022-10-15T07:40:22.824Z,24.00
2022-10-15T07:42:50.780Z,20.25
2022-10-15T07:45:18.443Z,16.75
2022-10-15T07:47:46.447Z,24.25
2022-10-15T07:50:14.104Z,22.25
2022-10-15T07:52:41.712Z,25.00
2022-10-15T07:55:09.800Z,28.00
2022-10-15T07:57:37.457Z,10.00
2022-10-15T08:00:05.478Z,14.00
2022-10-15T08:02:33.230Z,19.25
2022-10-15T08:05:00.896Z,21.75
2022-10-15T08:07:28.878Z,17.50
2022-10-15T08:09:57.002Z,25.75
2022-10-15T08:12:25.424Z,13.00
2022-10-15T08:14:53.417Z,11.50
2022-10-15T08:17:21.138Z,23.75
2022-10-15T08:19:48.918Z,15.00
2022-10-15T08:22:16.673Z,21.50
2022-10-15T08:24:44.776Z,22.50
2022-10-15T08:27:12.475Z,18.00
2022-10-15T08:29:40.122Z,18.00
2022-10-15T08:32:10.015Z,14.50
2022-10-15T08:34:37.745Z,22.25
2022-10-15T08:37:05.800Z,24.80
2022-10-15T08:39:33.714Z,17.50
2022-10-15T08:42:01.487Z,18.40
2022-10-15T08:44:29.162Z,18.20
2022-10-15T08:46:56.904Z,15.60
2022-10-15T08:49:25.007Z,26.25
2022-10-15T08:51:53.739Z,16.00
2022-10-15T08:54:21.870Z,18.80
2022-10-15T08:56:49.547Z,18.20
2022-10-15T08:59:17.281Z,15.00
2022-10-15T09:01:45.092Z,15.40
2022-10-15T09:04:12.742Z,19.20
2022-10-15T09:06:40.474Z,15.60
2022-10-15T09:09:08.550Z,13.80
2022-10-15T09:11:36.214Z,11.20
2022-10-15T09:14:04.244Z,12.80
2022-10-15T09:16:32.108Z,13.80
2022-10-15T09:18:59.870Z,11.60
2022-10-15T09:21:28.162Z,17.40
2022-10-15T09:23:55.998Z,10.40
2022-10-15T09:26:24.026Z,13.00
2022-10-15T09:28:51.768Z,16.00
2022-10-15T09:31:19.558Z,10.40
2022-10-15T09:33:47.546Z,14.60
2022-10-15T09:36:15.839Z,6.80
2022-10-15T09:38:43.964Z,12.20
2022-10-15T09:41:16.800Z,10.40
2022-10-15T09:43:44.907Z,7.40
2022-10-15T09:46:13.291Z,8.40
2022-10-15T09:48:40.959Z,6.40
2022-10-15T09:51:09.191Z,6.40
2022-10-15T09:53:36.987Z,6.60
2022-10-15T09:56:04.756Z,3.00
2022-10-15T09:58:34.621Z,6.00
2022-10-15T10:01:02.348Z,3.00
2022-10-15T10:03:30.516Z,1.00
2022-10-15T10:05:58.462Z,3.00
2022-10-15T10:08:26.281Z,1.40
2022-10-15T10:10:54.410Z,3.00
2022-10-15T10:13:22.198Z,3.00
2022-10-15T10:15:51.942Z,1.00
2022-10-15T10:18:21.477Z,1.80
2022-10-15T10:20:49.886Z,1.00
2022-10-15T10:23:18.056Z,0.00
2022-10-15T10:25:45.797Z,1.00
2022-10-15T10:28:14.158Z,1.00
2022-10-15T10:30:42.897Z,1.00
2022-10-15T10:33:10.691Z,0.00
2022-10-15T10:35:38.901Z,0.00
2022-10-15T10:38:06.705Z,0.00
2022-10-15T10:40:34.883Z,0.40
2022-10-15T10:43:02.733Z,0.00
2022-10-15T10:45:30.441Z,1.00
2022-10-15T10:48:00.825Z,2.20
2022-10-15T10:50:28.722Z,0.40
2022-10-15T10:52:57.077Z,3.00
2022-10-15T10:55:25.765Z,3.00
2022-10-15T10:57:54.287Z,0.00
2022-10-15T11:00:22.110Z,0.00
2022-10-15T11:02:50.255Z,0.00
2022-10-15T11:05:18.426Z,0.00
2022-10-15T11:07:46.320Z,0.00
2022-10-15T11:10:14.114Z,0.40
2022-10-15T11:12:42.341Z,0.00
2022-10-15T11:15:10.028Z,0.00
2022-10-15T11:17:38.397Z,0.00
2022-10-15T11:20:27.024Z,0.40
2022-10-15T11:22:55.078Z,0.00
2022-10-15T11:25:22.809Z,0.00
2022-10-15T11:27:50.912Z,0.00
2022-10-15T11:30:18.720Z,0.40
2022-10-15T11:33:06.327Z,0.00
2022-10-15T11:35:52.023Z,0.80
2022-10-15T11:38:21.469Z,0.00
2022-10-15T11:40:49.294Z,1.00
2022-10-15T11:43:17.978Z,0.60
2022-10-15T11:45:48.826Z,0.00
2022-10-15T11:48:16.715Z,0.00
2022-10-15T11:50:44.958Z,0.00
2022-10-15T11:53:12.815Z,0.40
2022-10-15T11:55:40.563Z,0.40
2022-10-15T11:58:08.756Z,0.00
2022-10-15T12:00:36.592Z,0.00
2022-10-15T12:03:05.003Z,1.00
2022-10-15T12:05:33.314Z,0.00
2022-10-15T12:08:01.360Z,0.00
2022-10-15T12:10:29.311Z,0.20
2022-10-15T12:12:57.158Z,0.00
2022-10-15T12:15:25.359Z,0.00
2022-10-15T12:17:53.143Z,0.20
2022-10-15T12:20:20.900Z,0.60
2022-10-15T12:22:50.434Z,0.00
2022-10-15T12:25:18.329Z,0.00
2022-10-15T12:27:46.765Z,0.00
2022-10-15T12:30:14.698Z,0.00
2022-10-15T12:32:42.421Z,0.00
2022-10-15T12:35:10.507Z,0.00
2022-10-15T12:37:38.455Z,0.00
2022-10-15T12:40:06.174Z,0.00
2022-10-15T12:42:33.952Z,0.00
2022-10-15T12:45:02.995Z,0.00
2022-10-15T12:47:31.493Z,0.00
2022-10-15T12:49:59.352Z,0.00
2022-10-15T12:52:27.519Z,0.00
2022-10-15T12:54:58.956Z,0.00
2022-10-15T12:57:29.787Z,0.00
2022-10-15T12:59:58.406Z,0.80
2022-10-15T13:02:26.149Z,1.00
2022-10-15T13:04:54.427Z,1.00
2022-10-15T13:07:22.484Z,0.00
2022-10-15T13:09:50.511Z,0.00
2022-10-15T13:12:20.361Z,1.00
2022-10-15T13:14:48.696Z,0.20
2022-10-15T13:17:16.422Z,0.00
2022-10-15T13:19:44.352Z,0.60
2022-10-15T13:22:12.251Z,1.00
2022-10-15T13:24:40.311Z,0.20
2022-10-15T13:27:08.096Z,1.00
2022-10-15T13:29:36.254Z,0.00
2022-10-15T13:32:05.466Z,0.00
2022-10-15T13:34:33.799Z,1.00
2022-10-15T13:37:02.203Z,0.60
2022-10-15T13:39:30.035Z,0.20
2022-10-15T13:41:58.248Z,1.00
2022-10-15T13:44:26.029Z,0.40
2022-10-15T13:46:53.821Z,0.60
2022-10-15T13:49:24.194Z,0.00
2022-10-15T13:51:54.324Z,0.00
2022-10-15T13:54:22.630Z,0.00
2022-10-15T13:56:50.911Z,1.00
2022-10-15T13:59:19.132Z,0.00
2022-10-15T14:01:47.109Z,0.60
2022-10-15T14:04:14.908Z,0.40
2022-10-15T14:06:44.619Z,0.40
2022-10-15T14:09:12.574Z,1.00
2022-10-15T14:11:40.813Z,0.00
2022-10-15T14:14:09.093Z,0.00
2022-10-15T14:16:36.864Z,0.00
2022-10-15T14:19:05.193Z,0.00
2022-10-15T14:21:33.313Z,0.00
2022-10-15T14:24:01.378Z,0.00
2022-10-15T14:26:29.227Z,0.20
2022-10-15T14:28:57.523Z,1.00
2022-10-15T14:31:25.862Z,1.00
2022-10-15T14:33:53.710Z,0.00
2022-10-15T14:36:21.458Z,1.00
2022-10-15T14:38:49.784Z,0.40
2022-10-15T14:41:17.742Z,0.80
2022-10-15T14:43:46.908Z,1.00
2022-10-15T14:46:14.833Z,0.00
2022-10-15T14:48:42.778Z,0.80
2022-10-15T14:51:10.923Z,0.00
2022-10-15T14:53:38.716Z,0.40
2022-10-15T14:56:07.585Z,1.00
2022-10-15T14:58:35.399Z,0.60
2022-10-15T15:01:03.267Z,0.60
2022-10-15T15:03:31.500Z,0.40
2022-10-15T15:05:59.567Z,0.00
2022-10-15T15:08:27.852Z,0.00
2022-10-15T15:10:55.620Z,0.00
2022-10-15T15:13:23.512Z,0.80
2022-10-15T15:15:51.421Z,1.00
2022-10-15T15:18:19.257Z,0.80
2022-10-15T15:20:49.182Z,0.20
2022-10-15T15:23:17.538Z,0.60
2022-10-15T15:25:45.543Z,0.00
2022-10-15T15:28:13.573Z,0.00
2022-10-15T15:30:41.291Z,0.00
2022-10-15T15:33:09.746Z,1.00
2022-10-15T15:35:37.606Z,0.20
2022-10-15T15:38:05.402Z,0.00
2022-10-15T15:40:33.912Z,0.00
2022-10-15T15:43:01.826Z,0.20
2022-10-15T15:45:30.169Z,0.00
2022-10-15T15:48:02.405Z,0.00
2022-10-15T15:50:30.281Z,0.00
2022-10-15T15:52:58.493Z,0.20
2022-10-15T15:55:26.342Z,1.00
2022-10-15T15:57:54.535Z,0.00
2022-10-15T16:00:22.363Z,0.00
2022-10-15T16:02:52.949Z,0.00
2022-10-15T16:05:26.733Z,0.00
2022-10-15T16:07:54.760Z,0.60
2022-10-15T16:10:22.546Z,1.00
2022-10-15T16:12:50.345Z,4.60
2022-10-15T16:15:18.334Z,1.00
2022-10-15T16:17:46.349Z,0.40
2022-10-15T16:20:14.412Z,1.00
2022-10-15T16:22:42.905Z,4.00
2022-10-15T16:25:10.759Z,2.80
2022-10-15T16:27:39.123Z,1.00
2022-10-15T16:30:07.322Z,1.20
2022-10-15T16:32:35.461Z,1.00
2022-10-15T16:35:03.321Z,0.40
2022-10-15T16:37:31.139Z,1.00
2022-10-15T16:39:59.087Z,1.00
2022-10-15T16:42:27.035Z,1.00
2022-10-15T16:44:55.258Z,2.20
2022-10-15T16:47:23.254Z,2.60
2022-10-15T16:49:51.232Z,1.00
2022-10-15T16:52:19.100Z,0.60
2022-10-15T16:54:47.685Z,0.80
2022-10-15T16:57:15.818Z,1.00
2022-10-15T16:59:43.746Z,0.00
2022-10-15T17:02:11.844Z,1.00
2022-10-15T17:04:40.056Z,2.20
2022-10-15T17:07:08.390Z,2.60
2022-10-15T17:09:36.717Z,1.00
2022-10-15T17:12:05.046Z,3.00
2022-10-15T17:14:32.827Z,1.40
2022-10-15T17:17:00.608Z,3.20
2022-10-15T17:19:31.778Z,3.00
2022-10-15T17:22:02.225Z,3.00
2022-10-15T17:24:29.988Z,3.00
2022-10-15T17:26:58.397Z,4.00
2022-10-15T17:29:29.146Z,4.40
2022-10-15T17:32:01.480Z,3.60
2022-10-15T17:34:29.825Z,4.00
2022-10-15T17:36:57.730Z,5.20
2022-10-15T17:39:25.505Z,4.00
2022-10-15T17:41:53.475Z,4.80
2022-10-15T17:44:21.715Z,5.60
2022-10-15T17:46:49.948Z,6.00
2022-10-15T17:49:19.021Z,2.20
2022-10-15T17:51:46.840Z,4.00
2022-10-15T17:54:15.047Z,7.00
2022-10-15T17:56:43.322Z,6.20
2022-10-15T17:59:11.603Z,5.60
2022-10-15T18:01:57.968Z,4.00
2022-10-15T18:04:26.530Z,6.40
2022-10-15T18:06:54.652Z,3.60
2022-10-15T18:09:22.491Z,3.00
2022-10-15T18:11:50.734Z,5.60
2022-10-15T18:16:51.711Z,6.20
2022-10-15T18:19:19.755Z,3.40
2022-10-15T18:21:49.610Z,8.20
2022-10-15T18:24:20.235Z,5.40
2022-10-15T18:26:48.223Z,4.00
2022-10-15T18:29:16.104Z,5.60
2022-10-15T18:31:44.387Z,6.00
2022-10-15T18:34:12.773Z,3.40
2022-10-15T18:36:42.569Z,3.00
2022-10-15T18:39:10.466Z,4.80
2022-10-15T18:41:40.201Z,3.20
2022-10-15T18:44:08.399Z,4.00
2022-10-15T18:46:36.742Z,6.00
2022-10-15T18:49:04.542Z,3.20
2022-10-15T18:51:32.333Z,3.00
2022-10-15T18:54:00.369Z,4.00
2022-10-15T18:56:29.806Z,4.40
2022-10-15T18:58:58.048Z,5.20
2022-10-15T19:01:26.082Z,4.00
2022-10-15T19:03:54.023Z,5.60
2022-10-15T19:06:21.923Z,4.00
2022-10-15T19:08:50.176Z,4.60
2022-10-15T19:11:18.686Z,1.40
2022-10-15T19:13:46.596Z,4.00
2022-10-15T19:16:14.658Z,3.60
2022-10-15T19:18:42.516Z,0.60
2022-10-15T19:21:10.530Z,0.80
2022-10-15T19:23:39.018Z,3.60
2022-10-15T19:26:06.978Z,6.00
2022-10-15T19:28:34.901Z,6.00
2022-10-15T19:31:02.760Z,3.00
2022-10-15T19:33:31.437Z,4.80
2022-10-15T19:35:59.586Z,5.60
2022-10-15T19:38:27.877Z,6.00
2022-10-15T19:40:56.114Z,6.80
2022-10-15T19:43:24.028Z,4.80
2022-10-15T19:45:51.976Z,6.00
2022-10-15T19:48:20.321Z,6.00
2022-10-15T19:50:48.113Z,7.40
2022-10-15T19:53:16.708Z,4.40
2022-10-15T19:55:44.729Z,1.80
2022-10-15T19:58:13.041Z,4.00
2022-10-15T20:00:41.360Z,5.60
2022-10-15T20:03:09.952Z,4.40
2022-10-15T20:05:37.796Z,6.20
2022-10-15T20:08:05.776Z,4.00
2022-10-15T20:10:33.642Z,3.60
2022-10-15T20:13:01.839Z,3.00
2022-10-15T20:15:29.980Z,3.00
2022-10-15T20:17:57.839Z,3.60
2022-10-15T20:20:25.656Z,4.00
2022-10-15T20:22:53.799Z,3.00
2022-10-15T20:25:22.557Z,4.00
2022-10-15T20:27:50.471Z,1.80
2022-10-15T20:30:18.293Z,2.20
2022-10-15T20:32:46.776Z,1.00
2022-10-15T20:35:14.696Z,1.40
2022-10-15T20:37:43.086Z,1.20
2022-10-15T20:40:10.933Z,1.40
2022-10-15T20:42:38.850Z,3.60
2022-10-15T20:45:06.647Z,3.00
2022-10-15T20:47:34.961Z,3.00
2022-10-15T20:50:03.327Z,1.40
2022-10-15T20:52:31.639Z,3.00
2022-10-15T20:54:59.530Z,3.00
2022-10-15T20:57:27.490Z,3.00
2022-10-15T20:59:55.605Z,3.00
2022-10-15T21:02:23.945Z,2.60
2022-10-15T21:04:53.587Z,1.00
2022-10-15T21:09:54.665Z,2.60
2022-10-15T21:12:22.756Z,0.00
2022-10-15T21:14:51.120Z,3.00
2022-10-15T21:17:19.030Z,1.00
2022-10-15T21:19:50.365Z,2.60
2022-10-15T21:22:20.569Z,2.60
2022-10-15T21:24:48.692Z,3.20
2022-10-15T21:27:16.762Z,3.40
2022-10-15T21:29:45.687Z,4.00
2022-10-15T21:32:13.603Z,3.00
2022-10-15T21:37:09.078Z,4.60
2022-10-15T21:39:37.255Z,5.60
2022-10-15T21:42:05.006Z,3.80
2022-10-15T21:44:33.754Z,5.20
2022-10-15T21:47:01.547Z,5.20
2022-10-15T21:49:29.412Z,1.00
2022-10-15T21:51:57.614Z,1.80
2022-10-15T21:54:25.323Z,3.20
2022-10-15T21:56:53.155Z,1.00
2022-10-15T21:59:20.864Z,5.20
2022-10-15T22:01:48.925Z,3.00
2022-10-15T22:04:17.287Z,3.60
2022-10-15T22:06:45.062Z,1.00
2022-10-15T22:09:12.947Z,3.00
2022-10-15T22:11:41.059Z,3.20
2022-10-15T22:14:09.138Z,3.40
2022-10-15T22:16:37.310Z,4.00
2022-10-15T22:19:05.104Z,3.00
2022-10-15T22:21:32.796Z,3.00
2022-10-15T22:24:00.594Z,1.80
2022-10-15T22:26:28.581Z,4.00
2022-10-15T22:28:56.674Z,3.00
2022-10-15T22:31:24.580Z,5.40
2022-10-15T22:33:52.718Z,3.20
2022-10-15T22:36:20.485Z,3.40
2022-10-15T22:38:48.564Z,3.40
2022-10-15T22:41:16.768Z,3.00
2022-10-15T22:43:44.463Z,5.60
2022-10-15T22:46:12.243Z,4.00
2022-10-15T22:48:39.931Z,1.40
2022-10-15T22:51:07.949Z,4.20
2022-10-15T22:53:36.069Z,3.80
2022-10-15T22:56:04.330Z,1.40
2022-10-15T22:58:32.096Z,4.00
2022-10-15T23:00:59.877Z,3.00
2022-10-15T23:03:28.001Z,3.40
2022-10-15T23:05:56.124Z,4.00
2022-10-15T23:08:23.840Z,3.00
2022-10-15T23:10:51.475Z,1.00
2022-10-15T23:13:19.171Z,3.20
2022-10-15T23:15:46.881Z,1.00
2022-10-15T23:18:14.967Z,3.20
2022-10-15T23:20:42.636Z,1.80
2022-10-15T23:23:10.347Z,2.60
2022-10-15T23:25:37.996Z,3.60
2022-10-15T23:28:05.610Z,3.80
2022-10-15T23:30:33.306Z,2.20
2022-10-15T23:33:00.965Z,2.60
2022-10-15T23:35:28.597Z,1.40
2022-10-15T23:37:56.327Z,0.60
2022-10-15T23:40:25.399Z,3.20
2022-10-15T23:42:52.986Z,3.00
2022-10-15T23:45:20.651Z,1.00
2022-10-15T23:47:48.411Z,1.00
2022-10-15T23:50:16.000Z,3.60
2022-10-15T23:52:44.002Z,1.00
2022-10-15T23:55:12.044Z,1.00
2022-10-15T23:57:39.659Z,1.40
